Aviation Digital Data Service (ADDS)

Output produced by METARs form (1409 UTC 25 July 2016)
found at http://aviationweather.gov/adds/metars/
 
KARA 251353Z 05008KT 10SM CLR 29/24 A2999 RMK AO2 SLP154 T02890239 PNO